地図

経路データ

SID SEASON NUMBER BASIN SUBBASIN NAME ISO_TIME NATURE LAT LON WMO_WIND WMO_PRES WMO_AGENCY TRACK_TYPE DIST2LAND LANDFALL IFLAG USA_AGENCY USA_ATCF_ID USA_LAT USA_LON USA_RECORD USA_STATUS USA_WIND USA_PRES USA_SSHS USA_R34_NE USA_R34_SE USA_R34_SW USA_R34_NW USA_R50_NE USA_R50_SE USA_R50_SW USA_R50_NW USA_R64_NE USA_R64_SE USA_R64_SW USA_R64_NW USA_POCI USA_ROCI USA_RMW USA_EYE TOKYO_LAT TOKYO_LON TOKYO_GRADE TOKYO_WIND TOKYO_PRES TOKYO_R50_DIR TOKYO_R50_LONG TOKYO_R50_SHORT TOKYO_R30_DIR TOKYO_R30_LONG TOKYO_R30_SHORT TOKYO_LAND CMA_LAT CMA_LON CMA_CAT CMA_WIND CMA_PRES HKO_LAT HKO_LON HKO_CAT HKO_WIND HKO_PRES NEWDELHI_LAT NEWDELHI_LON NEWDELHI_GRADE NEWDELHI_WIND NEWDELHI_PRES NEWDELHI_CI NEWDELHI_DP NEWDELHI_POCI REUNION_LAT REUNION_LON REUNION_TYPE REUNION_WIND REUNION_PRES REUNION_TNUM REUNION_CI REUNION_RMW REUNION_R34_NE REUNION_R34_SE REUNION_R34_SW REUNION_R34_NW REUNION_R50_NE REUNION_R50_SE REUNION_R50_SW REUNION_R50_NW REUNION_R64_NE REUNION_R64_SE REUNION_R64_SW REUNION_R64_NW BOM_LAT BOM_LON BOM_TYPE BOM_WIND BOM_PRES BOM_TNUM BOM_CI BOM_RMW BOM_R34_NE BOM_R34_SE BOM_R34_SW BOM_R34_NW BOM_R50_NE BOM_R50_SE BOM_R50_SW BOM_R50_NW BOM_R64_NE BOM_R64_SE BOM_R64_SW BOM_R64_NW BOM_ROCI BOM_POCI BOM_EYE BOM_POS_METHOD BOM_PRES_METHOD NADI_LAT NADI_LON NADI_CAT NADI_WIND NADI_PRES WELLINGTON_LAT WELLINGTON_LON WELLINGTON_WIND WELLINGTON_PRES DS824_LAT DS824_LON DS824_STAGE DS824_WIND DS824_PRES TD9636_LAT TD9636_LON TD9636_STAGE TD9636_WIND TD9636_PRES TD9635_LAT TD9635_LON TD9635_WIND TD9635_PRES TD9635_ROCI NEUMANN_LAT NEUMANN_LON NEUMANN_CLASS NEUMANN_WIND NEUMANN_PRES MLC_LAT MLC_LON MLC_CLASS MLC_WIND MLC_PRES USA_GUST BOM_GUST BOM_GUST_PER REUNION_GUST REUNION_GUST_PER USA_SEAHGT USA_SEARAD_NE USA_SEARAD_SE USA_SEARAD_SW USA_SEARAD_NW STORM_SPEED STORM_DIR
1918219N23126 1918 46 WP MM NOT_NAMED 1918-08-07 10:00:00 NR 22.6000 126.300 main 495 486 __________O___ -1 22.6000 126.300 4 5 12
1918219N23126 1918 46 WP MM NOT_NAMED 1918-08-07 12:00:00 NR 22.7773 126.338 main 486 483 __________P___ -1 22.7773 126.338 4 6 11
1918219N23126 1918 46 WP MM NOT_NAMED 1918-08-07 15:00:00 NR 23.0518 126.400 main 483 479 __________P___ -1 23.0518 126.400 4 6 12
1918219N23126 1918 46 WP MM NOT_NAMED 1918-08-07 18:00:00 NR 23.3481 126.473 main 486 477 __________P___ -1 23.3481 126.473 4 6 14
1918219N23126 1918 46 WP MM NOT_NAMED 1918-08-07 21:00:00 NR 23.6795 126.564 main 485 482 __________P___ -1 23.6795 126.564 4 7 14
1918219N23126 1918 46 WP MM NOT_NAMED 1918-08-07 22:00:00 NR 23.8000 126.600 main 482 481 __________O___ -1 23.8000 126.600 4 8 15
1918219N23126 1918 46 WP MM NOT_NAMED 1918-08-08 00:00:00 NR 24.0574 126.680 main 485 481 __________P___ -1 24.0574 126.680 4 8 17
1918219N23126 1918 46 WP MM NOT_NAMED 1918-08-08 03:00:00 NR 24.4751 126.819 main 487 487 __________P___ -1 24.4751 126.819 4 9 17
1918219N23126 1918 46 WP MM NOT_NAMED 1918-08-08 06:00:00 NR 24.9141 126.976 main 503 503 __________P___ -1 24.9141 126.976 4 9 18
1918219N23126 1918 46 WP MM NOT_NAMED 1918-08-08 09:00:00 NR 25.3555 127.143 main 514 524 __________P___ -1 25.3555 127.143 4 9 19
1918219N23126 1918 46 WP MM NOT_NAMED 1918-08-08 10:00:00 NR 25.5000 127.200 main 525 525 __________O___ -1 25.5000 127.200 4 9 19
1918219N23126 1918 46 WP MM NOT_NAMED 1918-08-08 12:00:00 NR 25.7775 127.303 main 539 539 __________P___ -1 25.7775 127.303 4 9 19
1918219N23126 1918 46 WP MM NOT_NAMED 1918-08-08 15:00:00 NR 26.1876 127.465 main 567 567 __________P___ -1 26.1876 127.465 4 9 20
1918219N23126 1918 46 WP MM NOT_NAMED 1918-08-08 18:00:00 NR 26.5877 127.638 main 572 523 __________P___ -1 26.5877 127.638 4 9 23
1918219N23126 1918 46 WP MM NOT_NAMED 1918-08-08 21:00:00 NR 26.9745 127.831 main 523 509 __________P___ -1 26.9745 127.831 4 8 25
1918219N23126 1918 46 WP MM NOT_NAMED 1918-08-08 22:00:00 NR 27.1000 127.900 main 509 474 __________O___ -1 27.1000 127.900 4 8 26
1918219N23126 1918 46 WP MM NOT_NAMED 1918-08-09 00:00:00 NR 27.3525 128.039 main 474 431 __________P___ -1 27.3525 128.039 4 8 28
1918219N23126 1918 46 WP MM NOT_NAMED 1918-08-09 03:00:00 NR 27.7188 128.267 main 431 382 __________P___ -1 27.7188 128.267 4 8 31
1918219N23126 1918 46 WP MM NOT_NAMED 1918-08-09 06:00:00 NR 28.0675 128.519 main 382 340 __________P___ -1 28.0675 128.519 4 8 35
1918219N23126 1918 46 WP MM NOT_NAMED 1918-08-09 09:00:00 NR 28.3957 128.800 main 340 326 __________P___ -1 28.3957 128.800 4 8 38
1918219N23126 1918 46 WP MM NOT_NAMED 1918-08-09 10:00:00 NR 28.5000 128.900 main 326 298 __________O___ -1 28.5000 128.900 4 8 42
1918219N23126 1918 46 WP MM NOT_NAMED 1918-08-09 12:00:00 NR 28.7007 129.111 main 298 255 __________P___ -1 28.7007 129.111 4 8 45
1918219N23126 1918 46 WP MM NOT_NAMED 1918-08-09 15:00:00 NR 28.9848 129.449 main 255 208 __________P___ -1 28.9848 129.449 4 8 48
1918219N23126 1918 46 WP MM NOT_NAMED 1918-08-09 18:00:00 NR 29.2541 129.806 main 208 174 __________P___ -1 29.2541 129.806 4 8 50
1918219N23126 1918 46 WP MM NOT_NAMED 1918-08-09 21:00:00 NR 29.5143 130.176 main 174 160 __________P___ -1 29.5143 130.176 4 8 51
1918219N23126 1918 46 WP MM NOT_NAMED 1918-08-09 22:00:00 NR 29.6000 130.300 main 160 __________O___ -1 29.6000 130.300 7 8 51

デジタル台風データ・検索

IBTrACS Databaseについて

本データベースは、米国NOAAが公開する1842年以降の世界の熱帯低気圧のベストトラックデータアーカイブInternational Best Track Archive for Climate Stewardship (IBTrACS)を、ウェブで閲覧しやすい形式に変換したものです。

最終更新日:2021-12-06